Time;durP1;ratioP1;P1;durP2;ratioP2;P2;SDS_P1;SDS_P2;PMS_P1;PMS_P2;Temp;Humidity;BMP_temperature;BMP_pressure;BME280_temperature;BME280_humidity;BME280_pressure;Samples;Min_cycle;Max_cycle;Signal;HPM_P1;HPM_P2
2023/07/29 17:34:31;;;;;;;1.08;0.80;;;32.30;42.70;;;;;;5136832;27;20622;-77
2023/07/29 17:36:57;;;;;;;0.90;0.77;;;32.20;41.00;;;;;;5124109;28;20035;-83
2023/07/29 17:39:23;;;;;;;0.80;0.60;;;32.20;41.90;;;;;;5124140;27;20057;-77
2023/07/29 17:41:49;;;;;;;1.45;1.05;;;32.20;42.10;;;;;;5122285;28;20027;-77
2023/07/29 17:44:15;;;;;;;2.45;0.73;;;32.10;42.30;;;;;;5095383;28;20023;-76
2023/07/29 17:46:41;;;;;;;1.45;0.90;;;32.00;42.40;;;;;;5121922;28;20039;-76
2023/07/29 17:49:07;;;;;;;1.48;1.00;;;32.00;42.80;;;;;;5121987;28;20467;-84
2023/07/29 17:51:33;;;;;;;0.47;0.47;;;32.00;43.00;;;;;;5123487;28;20443;-84
2023/07/29 17:54:00;;;;;;;4.70;1.30;;;31.90;42.40;;;;;;5121951;28;20045;-77
2023/07/29 17:56:28;;;;;;;0.45;0.45;;;31.80;42.90;;;;;;5113228;28;20032;-76
2023/07/29 17:58:54;;;;;;;1.15;0.73;;;31.70;43.40;;;;;;5118122;28;20501;-77
2023/07/29 18:01:20;;;;;;;0.77;0.63;;;31.60;43.50;;;;;;5108822;28;20035;-76
2023/07/29 18:03:46;;;;;;;1.63;0.80;;;31.60;43.90;;;;;;5104792;28;20084;-84
2023/07/29 18:06:14;;;;;;;1.02;0.65;;;31.40;44.80;;;;;;5123072;27;20059;-83
2023/07/29 18:08:41;;;;;;;3.25;1.13;;;31.30;45.40;;;;;;5122248;28;20383;-77
2023/07/29 18:11:07;;;;;;;1.23;0.73;;;31.20;46.20;;;;;;5120753;27;20042;-83
2023/07/29 18:13:34;;;;;;;2.25;1.27;;;31.10;46.20;;;;;;5112120;28;20495;-84
2023/07/29 18:16:01;;;;;;;1.27;0.82;;;31.00;47.10;;;;;;5108319;28;20038;-76
2023/07/29 18:18:28;;;;;;;1.38;0.90;;;30.80;46.40;;;;;;5121715;27;20503;-80
2023/07/29 18:20:54;;;;;;;1.10;0.82;;;30.80;46.70;;;;;;5121588;28;20027;-84
2023/07/29 18:23:22;;;;;;;3.20;1.38;;;30.70;46.90;;;;;;5104649;28;20039;-76
2023/07/29 18:25:52;;;;;;;1.25;0.80;;;30.50;46.90;;;;;;5121340;28;20035;-76
2023/07/29 18:28:19;;;;;;;1.30;0.60;;;30.40;47.10;;;;;;5121529;28;20277;-83
2023/07/29 18:30:49;;;;;;;1.38;0.70;;;30.30;47.70;;;;;;5114210;27;20027;-76
2023/07/29 18:33:15;;;;;;;2.42;1.30;;;30.10;48.50;;;;;;5119923;28;20466;-84
2023/07/29 18:35:42;;;;;;;4.43;1.95;;;30.00;48.80;;;;;;5108717;28;20102;-76
2023/07/29 18:38:08;;;;;;;2.45;1.23;;;29.80;48.00;;;;;;5108605;27;20039;-83
2023/07/29 18:40:34;;;;;;;1.00;0.93;;;29.80;49.00;;;;;;5107037;28;20054;-84
2023/07/29 18:43:00;;;;;;;0.73;0.63;;;29.60;49.40;;;;;;5108055;28;20032;-76
2023/07/29 18:45:29;;;;;;;2.35;1.40;;;29.50;49.50;;;;;;5107355;28;20115;-76
2023/07/29 18:47:55;;;;;;;0.88;0.70;;;29.40;50.00;;;;;;5107938;28;20528;-84
2023/07/29 18:50:21;;;;;;;0.63;0.50;;;29.20;49.90;;;;;;5089853;28;20038;-83
2023/07/29 18:52:47;;;;;;;1.63;1.20;;;29.10;50.80;;;;;;5107304;28;20095;-76
2023/07/29 18:55:13;;;;;;;1.20;0.90;;;29.00;51.00;;;;;;5106540;28;20027;-83
2023/07/29 18:57:39;;;;;;;1.90;1.27;;;28.90;50.80;;;;;;5090314;28;20123;-76
2023/07/29 19:00:06;;;;;;;2.40;1.05;;;28.90;51.30;;;;;;5107344;28;20447;-83
2023/07/29 19:02:33;;;;;;;1.33;0.73;;;28.80;51.20;;;;;;5107805;28;20032;-84
2023/07/29 19:04:59;;;;;;;0.77;0.70;;;28.60;51.40;;;;;;5108636;28;20023;-77
2023/07/29 19:07:25;;;;;;;2.30;1.20;;;28.60;52.30;;;;;;5089753;28;20043;-76
2023/07/29 19:09:57;;;;;;;2.28;1.38;;;28.50;51.90;;;;;;5106048;28;20078;-83
2023/07/29 19:12:23;;;;;;;1.65;1.25;;;28.40;52.00;;;;;;5094896;27;20123;-84
2023/07/29 19:14:49;;;;;;;1.35;0.57;;;28.30;51.80;;;;;;5106798;28;20397;-76
2023/07/29 19:17:15;;;;;;;3.15;1.80;;;28.30;52.30;;;;;;5106734;28;20031;-84
2023/07/29 19:19:41;;;;;;;2.13;1.13;;;28.20;52.60;;;;;;5107455;28;20043;-83
2023/07/29 19:22:07;;;;;;;3.22;1.27;;;28.10;52.90;;;;;;5093249;28;20040;-76
2023/07/29 19:24:34;;;;;;;4.13;1.98;;;28.00;53.30;;;;;;5096666;28;20039;-84
2023/07/29 19:27:03;;;;;;;2.10;1.67;;;27.90;53.30;;;;;;5094544;28;20487;-84
2023/07/29 19:29:30;;;;;;;2.42;1.85;;;27.80;53.20;;;;;;5088006;28;20102;-76
2023/07/29 19:31:58;;;;;;;2.15;1.30;;;27.70;53.20;;;;;;5101640;28;20043;-84
2023/07/29 19:34:24;;;;;;;1.98;1.33;;;27.50;53.70;;;;;;5089731;28;20055;-84
2023/07/29 19:36:51;;;;;;;2.42;1.20;;;27.40;54.30;;;;;;5106706;28;20114;-84
2023/07/29 19:39:17;;;;;;;1.40;1.05;;;27.20;54.80;;;;;;5093169;27;20032;-78
2023/07/29 19:41:43;;;;;;;1.27;0.70;;;27.00;55.50;;;;;;5068788;28;20541;-76
2023/07/29 19:44:09;;;;;;;1.15;0.88;;;26.90;55.40;;;;;;5085928;28;20097;-84
2023/07/29 19:46:35;;;;;;;1.75;1.00;;;26.80;55.80;;;;;;5067752;28;20024;-84
2023/07/29 19:49:01;;;;;;;1.67;1.27;;;26.70;56.30;;;;;;5087915;28;20032;-77
2023/07/29 19:51:27;;;;;;;1.40;1.00;;;26.70;56.40;;;;;;5105947;28;20387;-77
2023/07/29 19:53:53;;;;;;;8.38;2.53;;;26.70;56.50;;;;;;5089598;28;20583;-77
2023/07/29 19:56:19;;;;;;;5.38;1.42;;;26.70;56.30;;;;;;5106796;28;20073;-77
2023/07/29 19:58:48;;;;;;;2.22;1.75;;;26.60;56.50;;;;;;5108086;28;20073;-84
2023/07/29 20:01:14;;;;;;;3.65;1.73;;;26.60;56.20;;;;;;5106366;28;20639;-85
2023/07/29 20:03:41;;;;;;;3.38;1.52;;;26.60;56.80;;;;;;5107900;28;20115;-84
2023/07/29 20:06:07;;;;;;;1.65;1.15;;;26.50;57.30;;;;;;5088735;28;20032;-76
2023/07/29 20:08:34;;;;;;;0.80;0.75;;;26.40;57.60;;;;;;5107015;28;20040;-84
2023/07/29 20:11:00;;;;;;;4.15;1.70;;;26.40;57.60;;;;;;5086803;28;20099;-76
2023/07/29 20:13:26;;;;;;;3.92;2.00;;;26.40;57.90;;;;;;5081696;28;20063;-83
2023/07/29 20:16:12;;;;;;;1.13;1.02;;;26.40;58.20;;;;;;5085513;28;20032;-78
2023/07/29 20:18:39;;;;;;;0.57;0.53;;;26.30;58.20;;;;;;5085835;28;20040;-76
2023/07/29 20:21:05;;;;;;;1.58;1.23;;;26.20;58.30;;;;;;5105495;28;20031;-76
2023/07/29 20:23:31;;;;;;;1.13;0.60;;;26.10;58.40;;;;;;5105631;28;20039;-85
2023/07/29 20:25:57;;;;;;;1.38;0.80;;;26.00;58.60;;;;;;5107005;28;20034;-84
2023/07/29 20:28:23;;;;;;;1.90;1.65;;;25.90;58.20;;;;;;5107394;28;20040;-77
2023/07/29 20:31:08;;;;;;;1.48;1.05;;;25.80;58.50;;;;;;5104894;28;20032;-76
2023/07/29 20:33:34;;;;;;;0.63;0.57;;;25.80;58.50;;;;;;5105286;28;20130;-77
2023/07/29 20:36:00;;;;;;;2.47;1.40;;;25.80;59.10;;;;;;5106207;28;20182;-85
2023/07/29 20:38:26;;;;;;;1.10;0.90;;;25.80;58.90;;;;;;5105637;28;20103;-77
2023/07/29 20:40:55;;;;;;;1.58;1.27;;;25.80;59.20;;;;;;5106152;28;20073;-84
2023/07/29 20:43:23;;;;;;;1.58;0.93;;;25.70;59.30;;;;;;5089176;28;20483;-77
2023/07/29 20:45:51;;;;;;;2.03;0.80;;;25.80;59.10;;;;;;5102173;28;20030;-77
2023/07/29 20:48:17;;;;;;;1.75;1.05;;;25.70;59.20;;;;;;5068764;28;20400;-85
2023/07/29 20:50:44;;;;;;;1.50;1.15;;;25.60;58.90;;;;;;5085271;28;20039;-84
2023/07/29 20:53:11;;;;;;;1.33;0.98;;;25.60;59.30;;;;;;5104241;28;20031;-77
2023/07/29 20:55:37;;;;;;;3.03;1.38;;;25.60;59.80;;;;;;5094754;28;20053;-85
2023/07/29 20:58:03;;;;;;;2.88;1.42;;;25.50;60.00;;;;;;5068112;28;20403;-77
2023/07/29 21:00:29;;;;;;;2.67;1.40;;;25.50;59.50;;;;;;5084985;28;20496;-85
2023/07/29 21:03:15;;;;;;;2.00;1.10;;;25.50;60.00;;;;;;5083975;28;20366;-85
2023/07/29 21:05:43;;;;;;;1.50;0.70;;;25.50;59.90;;;;;;5101695;28;20031;-86
2023/07/29 21:08:09;;;;;;;0.88;0.60;;;25.40;59.90;;;;;;5104658;28;20057;-85
2023/07/29 21:10:35;;;;;;;1.80;1.38;;;25.40;60.30;;;;;;5104671;28;20432;-76
2023/07/29 21:13:01;;;;;;;1.00;0.90;;;25.30;60.70;;;;;;5106683;28;20035;-77
2023/07/29 21:15:27;;;;;;;4.97;1.88;;;25.30;60.60;;;;;;5088291;28;20043;-85
2023/07/29 21:17:53;;;;;;;1.20;0.82;;;25.30;60.50;;;;;;5105504;28;20085;-85
2023/07/29 21:20:19;;;;;;;1.15;1.02;;;25.30;60.60;;;;;;5100030;28;20036;-84
2023/07/29 21:22:45;;;;;;;0.60;0.43;;;25.20;60.80;;;;;;5105576;28;20487;-77
2023/07/29 21:25:12;;;;;;;1.83;1.05;;;25.10;61.00;;;;;;5104716;28;20372;-85
2023/07/29 21:27:38;;;;;;;0.73;0.50;;;25.10;61.30;;;;;;5105030;28;20040;-76
2023/07/29 21:30:05;;;;;;;1.48;0.80;;;24.90;61.50;;;;;;5104673;28;20038;-78
2023/07/29 21:32:31;;;;;;;1.15;0.88;;;24.90;61.50;;;;;;5106349;28;20101;-78
2023/07/29 21:34:58;;;;;;;1.05;0.60;;;24.90;61.60;;;;;;5106127;28;20247;-86
2023/07/29 21:37:25;;;;;;;1.30;0.65;;;24.80;61.70;;;;;;5097526;28;20090;-86
2023/07/29 21:39:51;;;;;;;0.45;0.43;;;24.80;61.60;;;;;;5087932;28;20043;-77
2023/07/29 21:42:17;;;;;;;5.25;1.63;;;24.80;62.50;;;;;;5104547;28;20043;-79
2023/07/29 21:44:43;;;;;;;1.98;1.02;;;24.70;62.00;;;;;;5105388;28;20028;-76
2023/07/29 21:47:10;;;;;;;1.83;0.63;;;24.70;62.00;;;;;;5087414;28;20039;-86
2023/07/29 21:49:36;;;;;;;0.73;0.70;;;24.70;62.10;;;;;;5106300;28;20027;-85
2023/07/29 21:52:02;;;;;;;0.95;0.52;;;24.70;62.10;;;;;;5105491;28;20040;-85
2023/07/29 21:54:28;;;;;;;1.25;0.93;;;24.60;61.50;;;;;;5097793;28;20051;-77
2023/07/29 21:56:54;;;;;;;1.98;0.70;;;24.60;62.30;;;;;;5083875;28;20043;-77
2023/07/29 21:59:20;;;;;;;1.15;0.68;;;24.50;62.50;;;;;;5084900;28;20080;-79
2023/07/29 22:01:46;;;;;;;1.30;0.82;;;24.50;62.50;;;;;;5084900;28;20412;-78
2023/07/29 22:04:12;;;;;;;2.20;0.90;;;24.40;62.50;;;;;;5105349;28;20035;-85
2023/07/29 22:06:39;;;;;;;0.88;0.65;;;24.30;62.70;;;;;;5104068;28;20015;-85
2023/07/29 22:09:05;;;;;;;1.23;0.85;;;24.30;62.40;;;;;;5089017;28;20043;-85
2023/07/29 22:11:31;;;;;;;1.85;1.10;;;24.20;62.70;;;;;;5107571;28;20036;-85
2023/07/29 22:13:57;;;;;;;3.63;0.93;;;24.20;62.50;;;;;;5108610;28;20499;-77
2023/07/29 22:16:23;;;;;;;0.98;0.82;;;24.20;62.90;;;;;;5108327;28;20036;-84
2023/07/29 22:18:49;;;;;;;1.98;1.42;;;24.10;62.80;;;;;;5110099;28;20081;-77
2023/07/29 22:21:15;;;;;;;1.67;1.25;;;24.10;63.10;;;;;;5108132;28;20031;-77
2023/07/29 22:23:41;;;;;;;;;;;24.00;63.20;;;;;;5091652;28;20039;-86
2023/07/29 22:26:07;;;;;;;0.77;0.77;;;23.90;63.50;;;;;;5108196;28;19924;-83
2023/07/29 22:31:19;;;;;;;4.55;1.20;;;23.70;63.80;;;;;;5108775;28;19984;-76
2023/07/29 22:33:45;;;;;;;1.15;0.88;;;23.70;64.10;;;;;;5110003;27;20063;-78
2023/07/29 22:36:11;;;;;;;;;;;23.70;63.90;;;;;;5107921;28;20043;-76
2023/07/29 22:38:37;;;;;;;2.63;0.85;;;23.60;63.80;;;;;;5108550;28;20084;-85
2023/07/29 22:41:03;;;;;;;;;;;23.60;64.00;;;;;;5091513;28;20024;-85
2023/07/29 22:43:30;;;;;;;2.03;1.38;;;23.60;63.90;;;;;;5088125;28;19920;-77
2023/07/29 22:45:58;;;;;;;0.38;0.38;;;23.60;64.00;;;;;;5088414;28;20024;-77
2023/07/29 22:48:26;;;;;;;2.17;0.82;;;23.60;64.00;;;;;;5088629;28;20048;-78
2023/07/29 22:50:54;;;;;;;1.10;0.68;;;23.60;64.00;;;;;;5087963;28;20081;-85
2023/07/29 22:53:21;;;;;;;1.08;0.98;;;23.50;64.40;;;;;;5088129;28;20472;-85
2023/07/29 22:55:49;;;;;;;0.40;0.40;;;23.50;64.50;;;;;;5091118;28;20096;-76
2023/07/29 22:58:16;;;;;;;1.02;0.68;;;23.50;64.40;;;;;;5116119;28;20144;-85
2023/07/29 23:00:46;;;;;;;1.08;0.68;;;23.50;64.50;;;;;;5097354;28;20157;-85
2023/07/29 23:03:12;;;;;;;1.67;1.27;;;23.40;63.70;;;;;;5116043;28;20036;-85
2023/07/29 23:05:38;;;;;;;;;;;23.40;64.50;;;;;;5114509;28;20383;-85
2023/07/29 23:08:04;;;;;;;0.57;0.55;;;23.40;64.40;;;;;;5114666;28;19942;-86
2023/07/29 23:10:32;;;;;;;2.88;1.10;;;23.40;65.00;;;;;;5114567;28;20023;-77
2023/07/29 23:12:59;;;;;;;0.50;0.50;;;23.30;64.40;;;;;;5114438;28;20047;-76
2023/07/29 23:15:26;;;;;;;1.58;1.00;;;23.30;64.70;;;;;;5096832;28;20499;-77
2023/07/29 23:17:52;;;;;;;1.88;1.15;;;23.30;64.90;;;;;;5114515;28;20127;-86
2023/07/29 23:20:18;;;;;;;;;;;23.30;64.90;;;;;;5097315;28;20495;-77
2023/07/29 23:22:45;;;;;;;1.40;0.45;;;23.20;64.30;;;;;;5114234;28;19920;-77
2023/07/29 23:25:12;;;;;;;0.70;0.63;;;23.10;65.00;;;;;;5115329;28;20035;-85
2023/07/29 23:27:39;;;;;;;1.13;0.88;;;23.00;65.10;;;;;;5115832;28;20093;-76
2023/07/29 23:30:09;;;;;;;2.20;1.05;;;23.00;64.90;;;;;;5113626;28;20097;-78
2023/07/29 23:32:35;;;;;;;0.50;0.40;;;23.00;65.40;;;;;;5113754;28;20429;-86
2023/07/29 23:35:00;;;;;;;;;;;22.90;66.00;;;;;;5114610;28;20035;-86
2023/07/29 23:37:27;;;;;;;1.92;0.93;;;22.90;65.50;;;;;;5131309;27;19972;-76
2023/07/29 23:39:53;;;;;;;0.68;0.40;;;22.90;65.90;;;;;;5096981;28;20068;-84
2023/07/29 23:42:18;;;;;;;;;;;22.90;66.30;;;;;;5114230;28;20035;-86
2023/07/29 23:44:44;;;;;;;1.60;0.80;;;22.80;66.00;;;;;;5096889;28;19918;-78
2023/07/29 23:47:10;;;;;;;;;;;22.80;65.90;;;;;;5097121;28;20036;-77
2023/07/29 23:49:37;;;;;;;0.68;0.47;;;22.80;66.00;;;;;;5113961;28;19918;-77
2023/07/29 23:52:05;;;;;;;0.85;0.85;;;22.80;66.70;;;;;;5096503;28;20047;-78
2023/07/29 23:54:31;;;;;;;1.85;0.80;;;22.70;65.60;;;;;;5097060;28;20038;-87
2023/07/29 23:56:57;;;;;;;0.80;0.50;;;22.70;65.40;;;;;;5113049;28;20036;-77
2023/07/29 23:59:23;;;;;;;;;;;22.70;66.00;;;;;;5114372;28;20031;-79
